Danbury, CT

7:59 PM EST on February 05, 2016 (GMT -0500)
Western Connecticut State University | | Change Station
CLOSE
Current Station
Personal Weather Station
Location: Danbury, CT
Elevation: 382 ft
Nearby Weather Stations

Elev 382 ft 41.40 °N, 73.44 °W | Updated 4 minutes ago

Clear
Clear
30.8 °F
Feels Like 31 °F
N
3.0
Wind Variable Wind from West
Gusts 8.0 mph

Today
High -- | Low -- °F
--% Chance of Precip.
Yesterday
High -- | Low -- °F
Precip. -- in
Pressure 30.26 in
Visibility 10.0 miles
Clouds Clear
Windchill 31 °F
Dew Point 13 °F
Humidity 48%
Rainfall 0.18 in
Snow Depth Not available.
7:01 AM 5:14 PM
Waning Crescent, 8% visible
METAR KDXR 060053Z 31005KT 10SM CLR 01/M13 A3024 RMK AO2 SLP245 T00061133
Pressure 30.26 in
Visibility 10.0 miles
Clouds Clear
Windchill 31 °F
Dew Point 13 °F
Humidity 48%
Rainfall 0.18 in
Snow Depth Not available.
7:01 AM 5:14 PM
Waning Crescent, 8% visible
METAR KDXR 060053Z 31005KT 10SM CLR 01/M13 A3024 RMK AO2 SLP245 T00061133

10-Day Weather Forecast

Almanac

Astronomy

Feb. 05, 2016 Rise Set
Actual Time
Civil Twilight
Nautical Twilight
Astronomical Twilight
Moon
Length of Visible Light
Length of Day
Tomorrow will be .
, % of the Moon is Illuminated

Today's Extremes

State Highs State Lows

Community

WunderPhotos

Upload Photos

1,890,900 photos uploaded!

WunderBlog® & News

Nearby

Air Quality

  Air Quality AQ Index Pollutant
Not available.

Snow Depth

Station Depth Elevation

Earthquake Activity

City Distance Mag. Time & Date
Minimum magnitude displayed is 2.5.

Coastal Water Temperatures

Place Temperature

Stations

Nearby Weather Stations

Station Location Temp. Windchill Dew Point Humidity Wind Precip. Elev Updated Type
                   

Watches & Warnings

Special Statement
Issued: 2:51 PM EST Feb. 5, 2016 – National Weather Service

... Gusty winds will continue to bring down snow laden tree limbs
and power lines into early this evening...

The heavy wet snowfall... combined with moderate northerly winds
of 10 to 20 mph with gusts into the 30s... will continue to down
tree limbs and power lines into early this evening. Those
venturing out are urged to be cognizant of this dangerous and
potentially deadly hazard.



251 PM EST Fri Feb 5 2016

... Gusty winds will continue to bring down snow laden tree limbs
and power lines into early this evening...

The heavy wet snowfall... combined with moderate northerly winds
of 10 to 20 mph with gusts into the 30s... will continue to down
tree limbs and power lines into early this evening. Those
venturing out are urged to be cognizant of this dangerous and
potentially deadly hazard.